createdAt,value
2018-07-17T00:02:18.921Z,7.83
2018-07-17T00:04:47.010Z,7.70
2018-07-17T00:07:15.102Z,7.57
2018-07-17T00:09:43.404Z,7.73
2018-07-17T00:12:11.625Z,7.60
2018-07-17T00:14:39.750Z,7.60
2018-07-17T00:17:07.870Z,7.47
2018-07-17T00:19:35.961Z,7.50
2018-07-17T00:22:04.081Z,6.70
2018-07-17T00:24:32.186Z,7.30
2018-07-17T00:27:00.297Z,8.30
2018-07-17T00:29:28.383Z,7.80
2018-07-17T00:31:56.479Z,7.20
2018-07-17T00:34:24.557Z,7.33
2018-07-17T00:36:52.651Z,7.87
2018-07-17T00:39:20.734Z,8.40
2018-07-17T00:41:48.785Z,7.30
2018-07-17T00:44:16.864Z,7.57
2018-07-17T00:46:44.954Z,7.60
2018-07-17T00:49:13.050Z,7.47
2018-07-17T00:51:41.162Z,7.33
2018-07-17T00:54:09.473Z,9.27
2018-07-17T00:56:37.485Z,9.30
2018-07-17T00:59:05.578Z,10.83
2018-07-17T01:01:38.949Z,8.17
2018-07-17T01:04:12.602Z,8.40
2018-07-17T01:06:46.050Z,8.40
2018-07-17T01:09:19.419Z,8.23
2018-07-17T01:11:52.850Z,8.50
2018-07-17T01:14:26.262Z,8.50
2018-07-17T01:16:54.354Z,8.27
2018-07-17T01:19:22.234Z,9.13
2018-07-17T01:21:50.333Z,8.07
2018-07-17T01:24:18.466Z,9.20
2018-07-17T01:26:46.561Z,9.27
2018-07-17T01:29:14.641Z,8.60
2018-07-17T01:31:42.740Z,8.70
2018-07-17T01:34:10.925Z,9.23
2018-07-17T01:36:39.174Z,8.60
2018-07-17T01:39:07.869Z,8.57
2018-07-17T01:41:36.037Z,8.10
2018-07-17T01:44:04.129Z,8.10
2018-07-17T01:46:32.223Z,8.90
2018-07-17T01:49:00.529Z,8.97
2018-07-17T01:51:28.649Z,7.17
2018-07-17T01:53:56.897Z,8.10
2018-07-17T01:56:25.001Z,8.10
2018-07-17T01:58:53.093Z,8.20
2018-07-17T02:01:20.959Z,7.90
2018-07-17T02:03:49.052Z,8.37
2018-07-17T02:06:17.129Z,7.93
2018-07-17T02:08:45.220Z,7.60
2018-07-17T02:11:13.298Z,8.90
2018-07-17T02:13:41.385Z,7.37
2018-07-17T02:16:09.465Z,8.83
2018-07-17T02:18:37.589Z,7.70
2018-07-17T02:21:05.657Z,7.93
2018-07-17T02:23:33.870Z,8.33
2018-07-17T02:26:01.989Z,7.67
2018-07-17T02:28:30.054Z,7.67
2018-07-17T02:30:58.166Z,8.40
2018-07-17T02:33:26.238Z,8.10
2018-07-17T02:35:54.314Z,8.50
2018-07-17T02:38:22.419Z,8.87
2018-07-17T02:40:50.500Z,8.27
2018-07-17T02:43:18.602Z,7.63
2018-07-17T02:45:46.683Z,7.83
2018-07-17T02:48:14.834Z,8.03
2018-07-17T02:50:42.861Z,7.30
2018-07-17T02:53:10.820Z,7.37
2018-07-17T02:55:38.918Z,7.40
2018-07-17T02:58:06.994Z,7.70
2018-07-17T03:00:35.102Z,7.30
2018-07-17T03:03:03.182Z,8.17
2018-07-17T03:05:31.278Z,8.07
2018-07-17T03:07:59.369Z,8.40
2018-07-17T03:10:27.701Z,8.80
2018-07-17T03:12:55.807Z,9.27
2018-07-17T03:15:23.890Z,8.70
2018-07-17T03:17:51.773Z,9.30
2018-07-17T03:20:20.225Z,8.63
2018-07-17T03:22:48.307Z,8.70
2018-07-17T03:25:16.409Z,8.60
2018-07-17T03:27:44.485Z,11.53
2018-07-17T03:30:12.596Z,8.40
2018-07-17T03:32:40.681Z,7.90
2018-07-17T03:35:08.926Z,9.20
2018-07-17T03:37:37.074Z,8.10
2018-07-17T03:40:05.374Z,8.30
2018-07-17T03:42:33.449Z,8.27
2018-07-17T03:45:01.525Z,8.10
2018-07-17T03:47:29.613Z,9.17
2018-07-17T03:49:57.728Z,9.37
2018-07-17T03:52:25.815Z,9.40
2018-07-17T03:54:53.906Z,9.23
2018-07-17T03:57:21.986Z,9.37
2018-07-17T03:59:50.094Z,9.73
2018-07-17T04:02:18.212Z,8.77
2018-07-17T04:04:46.305Z,9.80
2018-07-17T04:07:14.397Z,8.30
2018-07-17T04:09:42.485Z,8.77
2018-07-17T04:12:10.572Z,8.23
2018-07-17T04:14:38.664Z,9.60
2018-07-17T04:17:06.747Z,9.20
2018-07-17T04:19:34.849Z,10.47
2018-07-17T04:22:02.938Z,9.30
2018-07-17T04:24:31.045Z,11.13
2018-07-17T04:26:59.129Z,12.13
2018-07-17T04:29:27.233Z,10.13
2018-07-17T04:31:55.387Z,10.07
2018-07-17T04:34:23.421Z,11.03
2018-07-17T04:36:51.514Z,10.60
2018-07-17T04:39:19.613Z,11.70
2018-07-17T04:41:47.701Z,11.13
2018-07-17T04:44:15.882Z,10.33
2018-07-17T04:46:43.873Z,11.10
2018-07-17T04:49:11.968Z,10.43
2018-07-17T04:51:40.045Z,10.87
2018-07-17T04:54:08.146Z,9.43
2018-07-17T04:56:36.257Z,9.23
2018-07-17T04:59:04.349Z,10.10
2018-07-17T05:01:32.426Z,9.87
2018-07-17T05:04:00.505Z,10.00
2018-07-17T05:06:28.606Z,10.03
2018-07-17T05:08:56.516Z,11.57
2018-07-17T05:11:24.609Z,12.30
2018-07-17T05:13:52.698Z,11.80
2018-07-17T05:16:21.017Z,9.90
2018-07-17T05:18:49.065Z,11.30
2018-07-17T05:21:17.393Z,10.70
2018-07-17T05:23:45.481Z,10.00
2018-07-17T05:26:13.581Z,11.70
2018-07-17T05:28:41.661Z,10.77
2018-07-17T05:31:09.761Z,10.80
2018-07-17T05:33:37.838Z,11.07
2018-07-17T05:36:06.217Z,11.33
2018-07-17T05:38:34.304Z,11.47
2018-07-17T05:41:02.373Z,11.37
2018-07-17T05:43:30.457Z,14.93
2018-07-17T05:45:58.601Z,13.27
2018-07-17T05:48:26.686Z,12.20
2018-07-17T05:50:54.780Z,12.83
2018-07-17T05:53:22.878Z,12.87
2018-07-17T05:55:50.994Z,10.60
2018-07-17T05:58:19.138Z,11.37
2018-07-17T06:00:47.234Z,10.27
2018-07-17T06:03:15.444Z,11.97
2018-07-17T06:05:43.487Z,12.93
2018-07-17T06:08:11.830Z,12.07
2018-07-17T06:10:39.957Z,10.97
2018-07-17T06:13:08.082Z,11.63
2018-07-17T06:15:36.385Z,12.60
2018-07-17T06:18:04.525Z,11.13
2018-07-17T06:20:32.654Z,13.50
2018-07-17T06:23:00.814Z,14.10
2018-07-17T06:25:28.913Z,9.93
2018-07-17T06:27:57.025Z,9.00
2018-07-17T06:30:25.129Z,10.60
2018-07-17T06:32:53.257Z,9.03
2018-07-17T06:35:21.347Z,10.73
2018-07-17T06:37:49.433Z,9.87
2018-07-17T06:40:17.545Z,14.53
2018-07-17T06:42:45.646Z,10.40
2018-07-17T06:45:13.754Z,14.07
2018-07-17T06:47:41.849Z,11.37
2018-07-17T06:50:10.055Z,10.27
2018-07-17T06:52:38.061Z,10.10
2018-07-17T06:55:06.185Z,10.70
2018-07-17T06:57:34.329Z,8.50
2018-07-17T07:00:02.437Z,11.93
2018-07-17T07:02:30.541Z,14.73
2018-07-17T07:04:58.670Z,11.53
2018-07-17T07:07:26.778Z,12.17
2018-07-17T07:09:54.892Z,13.10
2018-07-17T07:12:22.994Z,15.83
2018-07-17T07:14:51.069Z,9.20
2018-07-17T07:17:19.186Z,9.80
2018-07-17T07:19:47.296Z,11.30
2018-07-17T07:22:15.405Z,10.90
2018-07-17T07:24:43.510Z,11.20
2018-07-17T07:27:11.617Z,17.17
2018-07-17T07:29:39.748Z,10.30
2018-07-17T07:32:07.862Z,8.33
2018-07-17T07:34:35.938Z,8.67
2018-07-17T07:37:04.034Z,9.13
2018-07-17T07:39:32.111Z,7.80
2018-07-17T07:42:00.205Z,9.77
2018-07-17T07:44:28.289Z,8.70
2018-07-17T07:46:56.401Z,8.37
2018-07-17T07:49:24.494Z,8.30
2018-07-17T07:51:52.593Z,7.73
2018-07-17T07:54:20.681Z,10.63
2018-07-17T07:56:48.778Z,8.80
2018-07-17T07:59:16.871Z,7.60
2018-07-17T08:01:44.965Z,7.97
2018-07-17T08:04:13.064Z,8.57
2018-07-17T08:06:41.185Z,8.13
2018-07-17T08:09:09.565Z,7.50
2018-07-17T08:11:38.003Z,8.40
2018-07-17T08:14:06.078Z,8.00
2018-07-17T08:16:34.197Z,9.07
2018-07-17T08:19:02.286Z,7.57
2018-07-17T08:21:30.366Z,7.30
2018-07-17T08:23:58.461Z,7.80
2018-07-17T08:26:26.557Z,7.37
2018-07-17T08:28:54.654Z,8.20
2018-07-17T08:31:22.737Z,8.10
2018-07-17T08:33:50.817Z,7.53
2018-07-17T08:36:18.909Z,8.13
2018-07-17T08:38:46.849Z,7.37
2018-07-17T08:41:14.946Z,8.00
2018-07-17T08:43:43.074Z,6.97
2018-07-17T08:46:11.108Z,8.07
2018-07-17T08:48:39.189Z,7.30
2018-07-17T08:51:07.301Z,7.70
2018-07-17T08:53:35.390Z,8.17
2018-07-17T08:56:03.495Z,6.73
2018-07-17T08:58:31.575Z,6.80
2018-07-17T09:00:59.703Z,6.00
2018-07-17T09:03:27.796Z,7.60
2018-07-17T09:05:55.930Z,6.63
2018-07-17T09:08:23.977Z,7.50
2018-07-17T09:10:52.061Z,7.20
2018-07-17T09:13:20.161Z,7.50
2018-07-17T09:15:48.249Z,7.80
2018-07-17T09:18:16.338Z,8.17
2018-07-17T09:20:44.436Z,7.13
2018-07-17T09:23:12.526Z,8.80
2018-07-17T09:25:40.640Z,7.03
2018-07-17T09:28:08.952Z,7.00
2018-07-17T09:30:42.485Z,7.73
2018-07-17T09:33:10.578Z,6.03
2018-07-17T09:35:38.657Z,7.20
2018-07-17T09:38:07.445Z,6.93
2018-07-17T09:40:35.524Z,7.40
2018-07-17T09:43:03.813Z,7.90
2018-07-17T09:45:32.208Z,7.53
2018-07-17T09:48:00.297Z,6.87
2018-07-17T09:50:28.406Z,6.70
2018-07-17T09:52:56.448Z,8.53
2018-07-17T09:55:24.533Z,6.97
2018-07-17T09:57:52.813Z,6.93
2018-07-17T10:00:26.094Z,7.23
2018-07-17T10:02:54.181Z,6.20
2018-07-17T10:05:22.273Z,7.50
2018-07-17T10:07:50.365Z,6.10
2018-07-17T10:10:18.452Z,6.40
2018-07-17T10:12:46.550Z,7.17
2018-07-17T10:15:14.930Z,8.07
2018-07-17T10:17:43.173Z,7.37
2018-07-17T10:20:11.332Z,6.97
2018-07-17T10:22:39.725Z,12.47
2018-07-17T10:25:08.513Z,7.37
2018-07-17T10:27:36.784Z,7.17
2018-07-17T10:30:04.897Z,6.73
2018-07-17T10:32:32.928Z,7.70
2018-07-17T10:35:01.013Z,7.40
2018-07-17T10:37:29.109Z,6.90
2018-07-17T10:39:57.210Z,7.53
2018-07-17T10:42:25.310Z,7.43
2018-07-17T10:44:53.456Z,7.27
2018-07-17T10:47:21.545Z,7.67
2018-07-17T10:49:49.657Z,6.20
2018-07-17T10:52:17.770Z,6.73
2018-07-17T10:54:45.877Z,6.57
2018-07-17T10:57:13.993Z,4.87
2018-07-17T10:59:42.119Z,8.00
2018-07-17T11:02:10.217Z,6.77
2018-07-17T11:04:38.404Z,9.53
2018-07-17T11:07:06.513Z,5.43
2018-07-17T11:09:34.592Z,12.27
2018-07-17T11:12:02.693Z,7.40
2018-07-17T11:14:30.804Z,6.53
2018-07-17T11:16:58.934Z,9.13
2018-07-17T11:19:27.077Z,9.37
2018-07-17T11:21:55.221Z,13.80
2018-07-17T11:24:23.349Z,9.70
2018-07-17T11:26:51.429Z,8.60
2018-07-17T11:29:19.821Z,6.57
2018-07-17T11:31:47.761Z,12.77
2018-07-17T11:34:15.837Z,8.03
2018-07-17T11:36:43.937Z,5.27
2018-07-17T11:39:12.036Z,6.17
2018-07-17T11:41:40.144Z,5.67
2018-07-17T11:44:08.248Z,5.77
2018-07-17T11:46:36.342Z,5.70
2018-07-17T11:49:04.921Z,6.87
2018-07-17T11:51:33.193Z,5.60
2018-07-17T11:54:01.276Z,5.33
2018-07-17T11:56:29.369Z,5.37
2018-07-17T11:58:57.481Z,6.20
2018-07-17T12:01:25.557Z,8.13
2018-07-17T12:03:53.665Z,6.67
2018-07-17T12:06:21.759Z,5.30
2018-07-17T12:08:49.893Z,5.80
2018-07-17T12:11:17.969Z,6.80
2018-07-17T12:13:46.052Z,9.13
2018-07-17T12:16:14.137Z,9.77
2018-07-17T12:18:42.229Z,7.10
2018-07-17T12:21:10.586Z,7.77
2018-07-17T12:23:38.697Z,7.33
2018-07-17T12:26:06.802Z,7.40
2018-07-17T12:28:34.925Z,7.00
2018-07-17T12:31:03.846Z,6.97
2018-07-17T12:33:32.126Z,7.97
2018-07-17T12:36:00.225Z,7.70
2018-07-17T12:38:28.339Z,10.60
2018-07-17T12:40:56.414Z,9.90
2018-07-17T12:43:24.512Z,7.53
2018-07-17T12:45:52.608Z,8.30
2018-07-17T12:48:20.699Z,7.07
2018-07-17T12:50:48.843Z,6.37
2018-07-17T12:53:16.933Z,6.83
2018-07-17T12:55:45.019Z,7.50
2018-07-17T12:58:13.105Z,7.13
2018-07-17T13:00:41.200Z,7.00
2018-07-17T13:03:09.089Z,5.33
2018-07-17T13:05:37.162Z,5.27
2018-07-17T13:08:05.269Z,6.90
2018-07-17T13:10:33.357Z,5.87
2018-07-17T13:13:01.479Z,5.10
2018-07-17T13:15:29.578Z,4.90
2018-07-17T13:17:57.776Z,6.27
2018-07-17T13:20:25.725Z,5.60
2018-07-17T13:22:53.901Z,6.30
2018-07-17T13:25:22.001Z,6.53
2018-07-17T13:27:50.109Z,5.07
2018-07-17T13:30:18.922Z,5.97
2018-07-17T13:32:47.012Z,5.60
2018-07-17T13:35:15.105Z,5.80
2018-07-17T13:37:43.206Z,5.50
2018-07-17T13:40:11.301Z,6.03
2018-07-17T13:42:39.385Z,5.60
2018-07-17T13:45:07.493Z,6.90
2018-07-17T13:47:35.586Z,6.47
2018-07-17T13:50:03.746Z,6.60
2018-07-17T13:52:31.797Z,6.00
2018-07-17T13:54:59.884Z,20.63
2018-07-17T13:57:27.965Z,7.50
2018-07-17T13:59:56.160Z,6.90
2018-07-17T14:02:24.219Z,6.50
2018-07-17T14:04:52.297Z,5.80
2018-07-17T14:07:20.384Z,5.90
2018-07-17T14:09:48.480Z,6.67
2018-07-17T14:12:16.971Z,5.47
2018-07-17T14:14:45.038Z,4.93
2018-07-17T14:17:13.122Z,4.63
2018-07-17T14:19:41.201Z,4.83
2018-07-17T14:22:09.277Z,4.63
2018-07-17T14:24:37.377Z,4.30
2018-07-17T14:27:05.470Z,4.37
2018-07-17T14:29:33.568Z,4.70
2018-07-17T14:32:01.642Z,5.10
2018-07-17T14:34:29.508Z,4.80
2018-07-17T14:36:57.585Z,6.10
2018-07-17T14:39:25.694Z,4.70
2018-07-17T14:41:53.821Z,4.87
2018-07-17T14:44:21.900Z,4.60
2018-07-17T14:46:49.995Z,4.33
2018-07-17T14:49:18.093Z,4.47
2018-07-17T14:51:46.203Z,3.90
2018-07-17T14:54:14.290Z,4.63
2018-07-17T14:56:42.152Z,4.10
2018-07-17T14:59:10.245Z,4.10
2018-07-17T15:01:38.336Z,4.40
2018-07-17T15:04:06.429Z,4.60
2018-07-17T15:06:34.514Z,4.27
2018-07-17T15:09:02.614Z,3.80
2018-07-17T15:11:30.697Z,4.20
2018-07-17T15:13:58.868Z,4.10
2018-07-17T15:16:26.933Z,3.50
2018-07-17T15:18:55.013Z,4.70
2018-07-17T15:21:23.138Z,3.73
2018-07-17T15:23:51.204Z,3.70
2018-07-17T15:26:19.426Z,4.17
2018-07-17T15:28:47.549Z,4.03
2018-07-17T15:31:15.640Z,4.27
2018-07-17T15:33:43.717Z,4.00
2018-07-17T15:36:11.805Z,4.23
2018-07-17T15:38:40.103Z,4.13
2018-07-17T15:41:08.200Z,4.27
2018-07-17T15:43:36.572Z,3.70
2018-07-17T15:46:04.713Z,4.53
2018-07-17T15:48:32.821Z,4.50
2018-07-17T15:51:01.013Z,3.93
2018-07-17T15:53:29.113Z,4.47
2018-07-17T15:55:57.214Z,4.10
2018-07-17T15:58:25.316Z,4.03
2018-07-17T16:00:53.404Z,3.83
2018-07-17T16:03:21.508Z,3.50
2018-07-17T16:05:49.627Z,3.23
2018-07-17T16:08:17.693Z,3.83
2018-07-17T16:10:45.820Z,3.47
2018-07-17T16:13:13.980Z,3.57
2018-07-17T16:15:42.045Z,3.67
2018-07-17T16:18:10.117Z,3.73
2018-07-17T16:20:38.461Z,3.87
2018-07-17T16:23:06.548Z,4.03
2018-07-17T16:25:34.635Z,41.03
2018-07-17T16:28:02.719Z,7.23
2018-07-17T16:30:30.819Z,4.33
2018-07-17T16:32:58.897Z,4.03
2018-07-17T16:35:26.986Z,3.60
2018-07-17T16:37:55.158Z,4.47
2018-07-17T16:40:23.292Z,4.20
2018-07-17T16:42:51.361Z,3.70
2018-07-17T16:45:19.463Z,3.90
2018-07-17T16:47:47.533Z,4.70
2018-07-17T16:50:15.653Z,3.90
2018-07-17T16:52:43.734Z,4.47
2018-07-17T16:55:11.814Z,3.20
2018-07-17T16:57:39.910Z,5.87
2018-07-17T17:00:08.022Z,3.40
2018-07-17T17:02:36.155Z,3.20
2018-07-17T17:05:04.250Z,4.17
2018-07-17T17:07:32.350Z,3.80
2018-07-17T17:10:00.437Z,3.60
2018-07-17T17:12:28.560Z,4.93
2018-07-17T17:14:56.778Z,3.73
2018-07-17T17:17:24.759Z,4.00
2018-07-17T17:19:52.834Z,4.13
2018-07-17T17:22:20.979Z,4.67
2018-07-17T17:24:48.886Z,3.97
2018-07-17T17:27:16.973Z,3.60
2018-07-17T17:29:45.123Z,3.73
2018-07-17T17:32:13.217Z,3.53
2018-07-17T17:34:41.399Z,3.70
2018-07-17T17:37:09.528Z,2.97
2018-07-17T17:39:37.659Z,2.50
2018-07-17T17:42:05.813Z,3.10
2018-07-17T17:44:33.881Z,2.90
2018-07-17T17:47:01.999Z,3.53
2018-07-17T17:49:30.081Z,4.83
2018-07-17T17:51:58.161Z,3.23
2018-07-17T17:54:26.456Z,3.47
2018-07-17T17:56:54.545Z,3.50
2018-07-17T18:01:57.145Z,4.30
2018-07-17T18:04:25.238Z,3.97
2018-07-17T18:06:53.342Z,4.07
2018-07-17T18:09:21.434Z,3.97
2018-07-17T18:11:49.551Z,3.73
2018-07-17T18:14:17.613Z,3.83
2018-07-17T18:16:45.713Z,3.70
2018-07-17T18:19:13.786Z,4.10
2018-07-17T18:21:41.898Z,3.80
2018-07-17T18:24:10.027Z,3.43
2018-07-17T18:26:38.120Z,4.23
2018-07-17T18:29:06.194Z,3.57
2018-07-17T18:31:34.293Z,4.30
2018-07-17T18:34:02.390Z,3.90
2018-07-17T18:36:30.833Z,3.60
2018-07-17T18:38:59.072Z,5.90
2018-07-17T18:41:27.305Z,5.30
2018-07-17T18:43:55.117Z,3.40
2018-07-17T18:46:23.342Z,4.50
2018-07-17T18:48:51.425Z,3.80
2018-07-17T18:51:19.545Z,4.00
2018-07-17T18:53:47.760Z,4.20
2018-07-17T18:56:15.786Z,3.53
2018-07-17T18:58:44.824Z,4.33
2018-07-17T19:01:12.913Z,3.67
2018-07-17T19:03:41.021Z,3.43
2018-07-17T19:06:09.834Z,4.00
2018-07-17T19:08:38.205Z,3.90
2018-07-17T19:11:06.308Z,3.67
2018-07-17T19:13:34.393Z,3.57
2018-07-17T19:16:02.490Z,3.83
2018-07-17T19:18:30.578Z,3.33
2018-07-17T19:20:58.677Z,3.80
2018-07-17T19:23:27.796Z,3.77
2018-07-17T19:25:55.918Z,3.40
2018-07-17T19:28:23.994Z,3.10
2018-07-17T19:30:52.129Z,3.50
2018-07-17T19:33:20.205Z,3.27
2018-07-17T19:35:48.394Z,4.47
2018-07-17T19:38:16.382Z,3.50
2018-07-17T19:40:44.485Z,4.10
2018-07-17T19:43:12.556Z,3.73
2018-07-17T19:45:40.657Z,4.17
2018-07-17T19:48:08.738Z,5.50
2018-07-17T19:50:36.838Z,6.57
2018-07-17T19:53:05.001Z,5.87
2018-07-17T19:55:33.309Z,3.37
2018-07-17T19:58:01.377Z,3.57
2018-07-17T20:00:29.456Z,5.23
2018-07-17T20:02:57.541Z,3.67
2018-07-17T20:05:25.625Z,2.97
2018-07-17T20:07:53.765Z,3.40
2018-07-17T20:10:21.845Z,3.40
2018-07-17T20:12:49.942Z,3.93
2018-07-17T20:15:18.022Z,3.73
2018-07-17T20:17:46.110Z,4.35
2018-07-17T20:20:14.185Z,3.90
2018-07-17T20:22:42.261Z,3.77
2018-07-17T20:25:10.477Z,4.93
2018-07-17T20:27:38.569Z,3.97
2018-07-17T20:30:06.641Z,3.50
2018-07-17T20:32:34.753Z,5.10
2018-07-17T20:35:02.858Z,3.30
2018-07-17T20:37:30.944Z,3.40
2018-07-17T20:39:59.045Z,3.50
2018-07-17T20:42:27.140Z,3.23
2018-07-17T20:44:55.213Z,3.93
2018-07-17T20:47:23.297Z,9.07
2018-07-17T20:49:51.374Z,4.13
2018-07-17T20:52:19.516Z,3.63
2018-07-17T20:54:47.601Z,3.80
2018-07-17T20:57:15.713Z,4.00
2018-07-17T20:59:43.585Z,3.77
2018-07-17T21:02:11.805Z,4.10
2018-07-17T21:04:39.881Z,4.80
2018-07-17T21:07:07.969Z,3.33
2018-07-17T21:09:36.052Z,3.70
2018-07-17T21:12:04.140Z,4.17
2018-07-17T21:14:32.057Z,4.20
2018-07-17T21:17:00.208Z,3.80
2018-07-17T21:19:28.289Z,4.63
2018-07-17T21:21:56.397Z,4.33
2018-07-17T21:24:24.525Z,4.30
2018-07-17T21:26:52.625Z,4.07
2018-07-17T21:29:20.709Z,4.43
2018-07-17T21:31:48.808Z,8.30
2018-07-17T21:34:16.903Z,5.33
2018-07-17T21:36:45.001Z,4.90
2018-07-17T21:39:14.149Z,5.37
2018-07-17T21:41:42.226Z,6.23
2018-07-17T21:44:10.345Z,8.00
2018-07-17T21:46:38.454Z,5.03
2018-07-17T21:49:06.547Z,5.50
2018-07-17T21:51:34.633Z,6.10
2018-07-17T21:54:02.713Z,5.60
2018-07-17T21:56:30.798Z,5.37
2018-07-17T21:58:58.873Z,5.03
2018-07-17T22:01:26.957Z,6.37
2018-07-17T22:03:55.037Z,5.47
2018-07-17T22:06:23.109Z,6.13
2018-07-17T22:08:51.223Z,5.67
2018-07-17T22:11:19.318Z,7.67
2018-07-17T22:13:47.438Z,9.23
2018-07-17T22:16:15.357Z,5.37
2018-07-17T22:18:43.442Z,8.43
2018-07-17T22:21:11.533Z,7.13
2018-07-17T22:23:39.647Z,6.73
2018-07-17T22:26:07.737Z,5.97
2018-07-17T22:28:35.822Z,7.63
2018-07-17T22:31:03.909Z,6.13
2018-07-17T22:33:32.001Z,5.37
2018-07-17T22:36:00.090Z,5.23
2018-07-17T22:38:28.241Z,5.50
2018-07-17T22:40:56.325Z,5.10
2018-07-17T22:43:24.417Z,5.70
2018-07-17T22:45:52.497Z,5.33
2018-07-17T22:48:20.593Z,5.60
2018-07-17T22:50:48.674Z,6.63
2018-07-17T22:53:16.765Z,6.23
2018-07-17T22:55:44.852Z,6.47
2018-07-17T22:58:12.938Z,5.53
2018-07-17T23:00:41.025Z,6.90
2018-07-17T23:03:09.144Z,6.53
2018-07-17T23:05:37.213Z,5.80
2018-07-17T23:08:05.362Z,6.27
2018-07-17T23:10:33.445Z,7.00
2018-07-17T23:13:01.576Z,6.23
2018-07-17T23:15:29.653Z,6.57
2018-07-17T23:17:57.744Z,8.80
2018-07-17T23:20:25.825Z,6.03
2018-07-17T23:22:56.031Z,5.63
2018-07-17T23:25:25.432Z,5.90
2018-07-17T23:27:54.020Z,6.53
2018-07-17T23:30:22.097Z,7.40
2018-07-17T23:32:50.987Z,6.40
2018-07-17T23:35:20.393Z,6.30
2018-07-17T23:37:48.773Z,6.73
2018-07-17T23:40:16.849Z,8.00
2018-07-17T23:42:44.942Z,6.43
2018-07-17T23:45:13.681Z,6.57
2018-07-17T23:47:41.765Z,5.87
2018-07-17T23:50:09.873Z,5.17
2018-07-17T23:52:37.961Z,6.07
2018-07-17T23:55:06.191Z,6.27
2018-07-17T23:57:34.289Z,6.00
